Adel, Georgia
Current Conditions -  °F | °C
As of 1:14 PM on Thursday 27 Nov 2014 (Local Time) from KVAD Reporting Station
Clear Clear  
Wind Chill: 57°   Ceiling: Unl
Heat Index: 57°   Visibility: 10mi
Dew Point: 32°   Wind: 14mph
Humidity: 38%   Direction: 270°W
Pressure: 30.24"   Gusts: 22mph
Location:  31.14°N, 83.42°W
Report Text: KVAD 271814Z AUTO 27012G19KT 10SM CLR 14/00 A3024 RMK AO2 WSHFT 02
Loading
Personal Weather Stations






























Interactive Weather Map New forecast layout! Learn more

10-Day Weather Forecast

Advertisements
Track Severe Weather on mobile